Time;durP1;ratioP1;P1;durP2;ratioP2;P2;SDS_P1;SDS_P2;PMS_P1;PMS_P2;Temp;Humidity;BMP_temperature;BMP_pressure;BME280_temperature;BME280_humidity;BME280_pressure;Samples;Min_cycle;Max_cycle;Signal;HPM_P1;HPM_P2
2021/10/12 00:01:13;;;;;;;19.63;7.35;;;11.40;99.90;;;;;;6245619;23;20008;-91
2021/10/12 00:03:38;;;;;;;15.23;7.15;;;11.30;99.90;;;;;;6218791;23;20414;-90
2021/10/12 00:06:04;;;;;;;20.70;7.38;;;11.40;99.90;;;;;;6218798;23;20386;-90
2021/10/12 00:08:29;;;;;;;24.50;6.80;;;11.30;99.90;;;;;;6218259;23;20012;-91
2021/10/12 00:10:55;;;;;;;19.98;7.20;;;11.30;99.90;;;;;;6219003;23;20006;-90
2021/10/12 00:13:21;;;;;;;13.23;5.88;;;11.40;99.90;;;;;;6218659;23;20005;-90
2021/10/12 00:15:46;;;;;;;25.55;6.80;;;11.40;99.90;;;;;;6219133;23;20020;-91
2021/10/12 00:18:12;;;;;;;18.90;5.75;;;11.40;99.90;;;;;;6220021;23;20000;-91
2021/10/12 00:20:38;;;;;;;17.10;5.65;;;11.40;99.90;;;;;;6219609;23;20012;-91
2021/10/12 00:23:07;;;;;;;19.00;6.05;;;11.40;99.90;;;;;;6219599;23;20133;-90
2021/10/12 00:25:33;;;;;;;18.80;5.95;;;11.40;99.90;;;;;;6220825;23;20011;-90
2021/10/12 00:27:59;;;;;;;19.00;6.00;;;11.40;99.90;;;;;;6221602;23;20032;-90
2021/10/12 00:30:25;;;;;;;27.63;6.05;;;11.40;99.90;;;;;;6224623;23;20008;-89
2021/10/12 00:32:51;;;;;;;18.30;6.03;;;11.40;99.90;;;;;;6228857;23;20011;-89
2021/10/12 00:35:16;;;;;;;16.23;5.35;;;11.40;99.90;;;;;;6227917;23;20050;-90
2021/10/12 00:37:42;;;;;;;14.48;4.68;;;11.40;99.90;;;;;;6220573;23;20008;-90
2021/10/12 00:40:08;;;;;;;21.58;6.13;;;11.40;99.90;;;;;;6219873;23;20016;-91
2021/10/12 00:42:35;;;;;;;12.80;5.30;;;11.40;99.90;;;;;;6220678;23;20084;-90
2021/10/12 00:45:07;;;;;;;21.92;5.72;;;11.50;99.90;;;;;;6220660;23;20378;-91
2021/10/12 00:47:33;;;;;;;18.08;5.72;;;11.50;99.90;;;;;;6220177;23;20000;-89
2021/10/12 00:49:59;;;;;;;19.42;6.03;;;11.50;99.90;;;;;;6221013;23;20000;-89
2021/10/12 00:52:24;;;;;;;18.42;5.60;;;11.50;99.90;;;;;;6220818;23;20034;-89
2021/10/12 00:54:50;;;;;;;14.55;5.95;;;11.50;99.90;;;;;;6220617;23;20012;-90
2021/10/12 00:57:17;;;;;;;24.77;6.40;;;11.50;99.90;;;;;;6220678;23;20004;-90
2021/10/12 00:59:44;;;;;;;14.88;5.30;;;11.60;99.90;;;;;;6221025;23;20008;-90
2021/10/12 01:02:09;;;;;;;14.18;5.57;;;11.50;99.90;;;;;;6221682;23;20012;-91
2021/10/12 01:04:35;;;;;;;9.68;4.72;;;11.50;99.90;;;;;;6232648;23;20067;-89
2021/10/12 01:07:02;;;;;;;19.35;5.57;;;11.60;99.90;;;;;;6229850;23;20008;-90
2021/10/12 01:09:27;;;;;;;13.73;5.00;;;11.60;99.90;;;;;;6227755;23;20016;-90
2021/10/12 01:11:53;;;;;;;17.02;5.00;;;11.50;99.90;;;;;;6221083;23;20439;-90
2021/10/12 01:14:19;;;;;;;14.18;4.53;;;11.60;99.90;;;;;;6220565;23;20058;-90
2021/10/12 01:16:44;;;;;;;10.70;4.63;;;11.60;99.90;;;;;;6220690;23;20031;-92
2021/10/12 01:19:11;;;;;;;12.85;4.07;;;11.60;99.90;;;;;;6220462;23;20420;-90
2021/10/12 01:21:46;;;;;;;16.80;4.25;;;11.60;99.90;;;;;;6218800;23;20337;-89
2021/10/12 01:24:12;;;;;;;13.50;3.72;;;11.60;99.90;;;;;;6220692;23;20008;-89
2021/10/12 01:26:41;;;;;;;13.70;4.65;;;11.60;99.90;;;;;;6220613;23;20115;-91
2021/10/12 01:29:09;;;;;;;14.40;3.90;;;11.60;99.90;;;;;;6220581;23;20011;-90
2021/10/12 01:31:35;;;;;;;8.60;2.92;;;11.60;99.90;;;;;;6220209;23;20087;-91
2021/10/12 01:34:01;;;;;;;9.43;3.53;;;11.60;99.90;;;;;;6220145;23;20419;-88
2021/10/12 01:36:26;;;;;;;10.00;2.70;;;11.60;99.90;;;;;;6220192;23;20443;-90
2021/10/12 01:38:52;;;;;;;12.40;2.80;;;11.60;99.90;;;;;;6220015;23;20001;-90
2021/10/12 01:41:18;;;;;;;10.50;2.78;;;11.70;99.90;;;;;;6220226;23;20432;-89
2021/10/12 01:43:44;;;;;;;11.02;2.83;;;11.70;99.90;;;;;;6220082;23;20420;-88
2021/10/12 01:46:10;;;;;;;8.88;3.15;;;11.70;99.90;;;;;;6221129;23;20015;-90
2021/10/12 01:48:36;;;;;;;5.57;2.70;;;11.60;99.90;;;;;;6220677;23;20004;-91
2021/10/12 01:51:04;;;;;;;12.82;2.45;;;11.60;99.90;;;;;;6220857;23;20034;-89
2021/10/12 01:53:30;;;;;;;9.25;2.70;;;11.60;99.90;;;;;;6220635;23;20016;-89
2021/10/12 01:55:56;;;;;;;10.18;2.25;;;11.60;99.90;;;;;;6220448;23;20087;-89
2021/10/12 01:58:22;;;;;;;14.27;2.53;;;11.60;99.90;;;;;;6220655;23;20004;-89
2021/10/12 02:00:49;;;;;;;11.27;1.77;;;11.60;99.90;;;;;;6220346;23;20011;-89
2021/10/12 02:03:15;;;;;;;9.52;2.40;;;11.60;99.90;;;;;;6219863;23;20008;-91
2021/10/12 02:05:40;;;;;;;11.10;2.70;;;11.60;99.90;;;;;;6219740;23;20335;-89
2021/10/12 02:08:06;;;;;;;12.10;2.65;;;11.60;99.90;;;;;;6218895;23;20443;-89
2021/10/12 02:10:32;;;;;;;10.10;2.60;;;11.60;99.90;;;;;;6219526;23;20435;-90
2021/10/12 02:12:58;;;;;;;11.10;2.58;;;11.60;99.90;;;;;;6219309;23;20008;-89
2021/10/12 02:15:24;;;;;;;7.93;2.40;;;11.60;99.90;;;;;;6219314;23;20420;-88
2021/10/12 02:17:49;;;;;;;7.50;2.40;;;11.60;99.90;;;;;;6218686;23;20042;-89
2021/10/12 02:20:15;;;;;;;6.35;2.95;;;11.60;99.90;;;;;;6218688;23;20032;-89
2021/10/12 02:22:41;;;;;;;9.45;2.50;;;11.60;99.90;;;;;;6218819;23;20416;-89
2021/10/12 02:25:09;;;;;;;11.30;3.17;;;11.70;99.90;;;;;;6218297;23;20027;-88
2021/10/12 02:27:36;;;;;;;14.10;3.15;;;11.70;99.90;;;;;;6218700;23;20009;-88
2021/10/12 02:30:03;;;;;;;13.38;4.25;;;11.70;99.90;;;;;;6219440;23;20004;-90
2021/10/12 02:32:28;;;;;;;8.63;2.88;;;11.70;99.90;;;;;;6220156;23;20004;-90
2021/10/12 02:34:54;;;;;;;7.65;3.58;;;11.70;99.90;;;;;;6219432;23;20360;-89
2021/10/12 02:37:20;;;;;;;17.10;3.45;;;11.70;99.90;;;;;;6219678;23;20020;-90
2021/10/12 02:39:46;;;;;;;11.27;3.53;;;11.70;99.90;;;;;;6220250;23;20000;-87
2021/10/12 02:42:12;;;;;;;9.05;3.50;;;11.60;99.90;;;;;;6219261;23;20005;-90
2021/10/12 02:44:37;;;;;;;14.30;3.67;;;11.70;99.90;;;;;;6219283;23;20055;-88
2021/10/12 02:47:03;;;;;;;9.07;2.92;;;11.60;99.90;;;;;;6219344;23;20000;-90
2021/10/12 02:49:29;;;;;;;6.72;2.90;;;11.60;99.90;;;;;;6219063;23;20031;-90
2021/10/12 02:51:55;;;;;;;15.07;3.63;;;11.60;99.90;;;;;;6219222;23;20004;-91
2021/10/12 02:54:21;;;;;;;12.30;3.50;;;11.60;99.90;;;;;;6219192;23;20016;-89
2021/10/12 02:56:46;;;;;;;15.80;3.40;;;11.60;99.90;;;;;;6219219;23;20008;-91
2021/10/12 02:59:12;;;;;;;12.75;3.00;;;11.60;99.90;;;;;;6219421;23;20011;-89
2021/10/12 03:01:38;;;;;;;10.05;3.17;;;11.60;99.90;;;;;;6218971;23;20014;-89
2021/10/12 03:04:03;;;;;;;6.72;2.72;;;11.60;99.90;;;;;;6218987;23;20328;-89
2021/10/12 03:06:29;;;;;;;11.23;3.38;;;11.60;99.90;;;;;;6218883;23;20290;-90
2021/10/12 03:08:55;;;;;;;9.88;3.38;;;11.50;99.90;;;;;;6218699;23;20019;-90
2021/10/12 03:11:20;;;;;;;11.45;3.03;;;11.60;99.90;;;;;;6219075;23;20046;-90
2021/10/12 03:13:46;;;;;;;12.27;3.08;;;11.60;99.90;;;;;;6218661;23;20005;-91
2021/10/12 03:16:12;;;;;;;15.15;3.83;;;11.60;99.90;;;;;;6219123;23;20008;-89
2021/10/12 03:18:38;;;;;;;10.77;3.28;;;11.60;99.90;;;;;;6218680;23;20012;-90
2021/10/12 03:21:05;;;;;;;15.30;4.13;;;11.70;99.90;;;;;;6219098;23;20031;-90
2021/10/12 03:23:31;;;;;;;7.75;3.05;;;11.60;99.90;;;;;;6218901;23;20010;-91
2021/10/12 03:25:56;;;;;;;16.15;4.22;;;11.70;99.90;;;;;;6218666;23;20079;-89
2021/10/12 03:28:23;;;;;;;6.50;3.00;;;11.60;99.90;;;;;;6218977;23;20427;-90
2021/10/12 03:30:49;;;;;;;10.48;3.10;;;11.60;99.90;;;;;;6218709;23;20001;-89
2021/10/12 03:33:15;;;;;;;9.55;3.25;;;11.60;99.90;;;;;;6218739;23;20016;-90
2021/10/12 03:35:47;;;;;;;6.93;3.33;;;11.60;99.90;;;;;;6218949;23;20016;-91
2021/10/12 03:38:13;;;;;;;16.35;3.83;;;11.60;99.90;;;;;;6219316;23;20003;-90
2021/10/12 03:40:39;;;;;;;9.57;3.35;;;11.60;99.90;;;;;;6220206;23;20011;-90
2021/10/12 03:43:04;;;;;;;13.27;3.60;;;11.60;99.90;;;;;;6221949;23;20007;-90
2021/10/12 03:45:30;;;;;;;8.73;3.80;;;11.60;99.90;;;;;;6219051;23;20001;-90
2021/10/12 03:47:56;;;;;;;13.70;3.10;;;11.50;99.90;;;;;;6218492;23;20000;-89
2021/10/12 03:50:21;;;;;;;9.70;2.65;;;11.50;99.90;;;;;;6218668;23;20114;-89
2021/10/12 03:52:47;;;;;;;11.32;2.83;;;11.50;99.90;;;;;;6218393;23;20014;-89
2021/10/12 03:55:14;;;;;;;8.55;3.38;;;11.50;99.90;;;;;;6218044;23;20082;-90
2021/10/12 03:57:40;;;;;;;10.77;2.92;;;11.50;99.90;;;;;;6218423;23;20424;-89
2021/10/12 04:00:07;;;;;;;10.57;3.13;;;11.50;99.90;;;;;;6218658;23;20095;-90
2021/10/12 04:02:33;;;;;;;10.43;4.97;;;11.50;99.90;;;;;;6218333;23;20009;-89
2021/10/12 04:04:58;;;;;;;11.27;2.97;;;11.50;99.90;;;;;;6218220;23;20004;-89
2021/10/12 04:07:24;;;;;;;12.05;3.47;;;11.50;99.90;;;;;;6218606;23;20073;-90
2021/10/12 04:09:50;;;;;;;12.82;3.40;;;11.60;99.90;;;;;;6218540;23;20036;-90
2021/10/12 04:12:16;;;;;;;17.20;3.47;;;11.60;99.90;;;;;;6218554;23;20008;-90
2021/10/12 04:14:42;;;;;;;11.85;3.88;;;11.60;99.90;;;;;;6218549;23;20066;-90
2021/10/12 04:17:08;;;;;;;9.35;3.15;;;11.50;99.90;;;;;;6218249;23;20004;-90
2021/10/12 04:19:33;;;;;;;10.13;3.20;;;11.60;99.90;;;;;;6218538;23;20032;-91
2021/10/12 04:21:59;;;;;;;11.18;2.75;;;11.50;99.90;;;;;;6218309;23;20078;-89
2021/10/12 04:24:25;;;;;;;12.05;3.00;;;11.60;99.90;;;;;;6218755;23;20058;-88
2021/10/12 04:26:51;;;;;;;9.65;2.65;;;11.50;99.90;;;;;;6218566;23;20011;-89
2021/10/12 04:29:16;;;;;;;12.02;3.33;;;11.50;99.90;;;;;;6218390;23;20005;-88
2021/10/12 04:31:42;;;;;;;10.13;2.72;;;11.50;99.90;;;;;;6218800;23;20004;-89
2021/10/12 04:34:09;;;;;;;10.48;3.20;;;11.60;99.90;;;;;;6218429;22;20015;-89
2021/10/12 04:36:34;;;;;;;11.40;3.58;;;11.50;99.90;;;;;;6218332;23;20059;-89
2021/10/12 04:39:00;;;;;;;10.55;3.08;;;11.60;99.90;;;;;;6218317;23;20000;-90
2021/10/12 04:41:26;;;;;;;11.95;2.83;;;11.60;99.90;;;;;;6218419;23;20016;-89
2021/10/12 04:43:52;;;;;;;11.02;3.80;;;11.60;99.90;;;;;;6220668;23;20007;-89
2021/10/12 04:46:18;;;;;;;7.95;2.67;;;11.60;99.90;;;;;;6220598;23;20008;-89
2021/10/12 04:48:44;;;;;;;9.15;2.40;;;11.60;99.90;;;;;;6221561;23;20011;-89
2021/10/12 04:51:09;;;;;;;11.52;3.05;;;11.60;99.90;;;;;;6221382;23;20004;-89
2021/10/12 04:53:35;;;;;;;7.68;2.50;;;11.60;99.90;;;;;;6220850;23;20008;-89
2021/10/12 04:56:01;;;;;;;12.93;2.90;;;11.60;99.90;;;;;;6220152;23;20084;-89
2021/10/12 04:58:27;;;;;;;15.52;3.05;;;11.60;99.90;;;;;;6220537;23;20112;-88
2021/10/12 05:00:52;;;;;;;9.40;3.15;;;11.60;99.90;;;;;;6220312;23;20004;-89
2021/10/12 05:03:18;;;;;;;16.73;3.63;;;11.60;99.90;;;;;;6220062;23;20347;-89
2021/10/12 05:05:44;;;;;;;5.20;3.00;;;11.60;99.90;;;;;;6220247;23;20004;-89
2021/10/12 05:08:10;;;;;;;8.23;2.83;;;11.60;99.90;;;;;;6219559;23;20042;-89
2021/10/12 05:10:35;;;;;;;17.85;3.88;;;11.60;99.90;;;;;;6220237;23;20070;-90
2021/10/12 05:13:01;;;;;;;15.35;4.68;;;11.60;99.90;;;;;;6220475;23;20366;-90
2021/10/12 05:15:29;;;;;;;9.55;3.47;;;11.60;99.90;;;;;;6220600;23;20020;-90
2021/10/12 05:17:56;;;;;;;9.38;3.67;;;11.60;99.90;;;;;;6220354;23;20031;-90
2021/10/12 05:20:22;;;;;;;8.32;2.58;;;11.60;99.90;;;;;;6219968;23;20008;-90
2021/10/12 05:22:48;;;;;;;9.95;2.75;;;11.50;99.90;;;;;;6219873;23;20418;-90
2021/10/12 05:25:14;;;;;;;14.95;3.25;;;11.50;99.90;;;;;;6219935;23;20440;-91
2021/10/12 05:27:40;;;;;;;12.02;4.25;;;11.60;99.90;;;;;;6220359;23;20004;-89
2021/10/12 05:30:08;;;;;;;18.73;3.58;;;11.60;99.90;;;;;;6219641;23;20004;-90
2021/10/12 05:32:38;;;;;;;12.63;2.92;;;11.60;99.90;;;;;;6219796;23;20035;-89
2021/10/12 05:35:05;;;;;;;14.90;5.00;;;11.60;99.90;;;;;;6219649;23;20008;-90
2021/10/12 05:37:31;;;;;;;12.80;3.45;;;11.60;99.90;;;;;;6219996;23;20016;-89
2021/10/12 05:39:57;;;;;;;15.48;3.70;;;11.60;99.90;;;;;;6219960;23;20012;-89
2021/10/12 05:42:23;;;;;;;12.38;2.97;;;11.60;99.90;;;;;;6219960;23;20453;-90
2021/10/12 05:44:48;;;;;;;9.93;2.47;;;11.50;99.90;;;;;;6219879;23;20383;-89
2021/10/12 05:47:14;;;;;;;14.20;4.00;;;11.60;99.90;;;;;;6220045;23;20062;-89
2021/10/12 05:49:41;;;;;;;12.40;3.22;;;11.60;99.90;;;;;;6220136;23;20001;-89
2021/10/12 05:52:08;;;;;;;11.13;3.08;;;11.60;99.90;;;;;;6220190;23;20004;-90
2021/10/12 05:54:38;;;;;;;20.98;3.42;;;11.60;99.90;;;;;;6220372;23;20016;-90
2021/10/12 05:59:29;;;;;;;10.98;3.38;;;11.60;99.90;;;;;;6257620;23;20012;-91
2021/10/12 06:01:57;;;;;;;12.80;2.67;;;11.60;99.90;;;;;;6233124;23;20036;-90
2021/10/12 06:04:22;;;;;;;9.52;2.55;;;11.60;99.90;;;;;;6226283;23;20465;-90
2021/10/12 06:06:48;;;;;;;15.75;3.17;;;11.60;99.90;;;;;;6221805;23;20036;-92
2021/10/12 06:09:13;;;;;;;8.90;2.67;;;11.60;99.90;;;;;;6219608;23;20066;-91
2021/10/12 06:11:39;;;;;;;10.73;3.00;;;11.60;99.90;;;;;;6220491;23;20010;-90
2021/10/12 06:14:05;;;;;;;12.63;3.10;;;11.60;99.90;;;;;;6219243;23;20440;-90
2021/10/12 06:16:31;;;;;;;8.90;2.60;;;11.60;99.90;;;;;;6219364;23;20011;-91
2021/10/12 06:18:56;;;;;;;12.88;2.83;;;11.70;99.90;;;;;;6219134;23;20039;-90
2021/10/12 06:21:22;;;;;;;11.57;3.30;;;11.60;99.90;;;;;;6218592;23;20019;-90
2021/10/12 06:23:48;;;;;;;18.67;2.90;;;11.70;99.90;;;;;;6218921;23;20012;-90
2021/10/12 06:26:13;;;;;;;5.63;2.58;;;11.60;99.90;;;;;;6219521;23;20062;-91
2021/10/12 06:28:39;;;;;;;14.65;2.92;;;11.60;99.90;;;;;;6219024;23;20004;-92
2021/10/12 06:31:06;;;;;;;12.55;3.10;;;11.60;99.90;;;;;;6219487;23;20047;-91
2021/10/12 06:33:33;;;;;;;9.73;2.90;;;11.60;99.90;;;;;;6218716;23;20000;-91
2021/10/12 06:35:58;;;;;;;14.10;2.92;;;11.60;99.90;;;;;;6218423;23;20027;-92
2021/10/12 06:38:24;;;;;;;10.27;2.90;;;11.60;99.90;;;;;;6218814;23;20440;-92
2021/10/12 06:40:50;;;;;;;17.70;3.45;;;11.60;99.90;;;;;;6219727;23;20020;-91
2021/10/12 06:43:15;;;;;;;8.98;2.65;;;11.70;99.90;;;;;;6222875;23;20058;-93
2021/10/12 06:45:42;;;;;;;11.35;2.95;;;11.70;99.90;;;;;;6223108;23;20090;-91
2021/10/12 06:48:10;;;;;;;6.53;2.30;;;11.70;99.90;;;;;;6226099;23;20099;-91
2021/10/12 06:50:35;;;;;;;11.45;2.38;;;11.70;99.90;;;;;;6226515;23;20008;-90
2021/10/12 06:53:03;;;;;;;6.75;2.15;;;11.70;99.90;;;;;;6220814;23;20077;-90
2021/10/12 06:55:29;;;;;;;10.48;2.35;;;11.70;99.90;;;;;;6222425;23;20016;-90
2021/10/12 06:57:55;;;;;;;11.15;2.38;;;11.80;99.90;;;;;;6222394;23;20087;-90
2021/10/12 07:00:20;;;;;;;19.15;3.30;;;11.80;99.90;;;;;;6222318;23;20420;-90
2021/10/12 07:02:47;;;;;;;11.40;2.75;;;11.80;99.90;;;;;;6223288;23;20141;-90
2021/10/12 07:05:14;;;;;;;9.48;2.60;;;11.80;99.90;;;;;;6222076;23;20040;-89
2021/10/12 07:07:40;;;;;;;9.68;1.92;;;11.80;99.90;;;;;;6222905;23;20016;-90
2021/10/12 07:10:09;;;;;;;13.05;2.80;;;11.80;99.90;;;;;;6222234;23;20095;-90
2021/10/12 07:12:35;;;;;;;10.45;3.20;;;11.90;99.90;;;;;;6221023;23;20416;-90
2021/10/12 07:15:01;;;;;;;9.45;2.78;;;11.90;99.90;;;;;;6220388;23;20019;-91
2021/10/12 07:17:26;;;;;;;7.97;2.60;;;11.90;99.90;;;;;;6220057;23;20004;-91
2021/10/12 07:19:52;;;;;;;11.60;5.10;;;11.90;99.90;;;;;;6220441;23;20004;-91
2021/10/12 07:22:22;;;;;;;12.07;2.65;;;11.90;99.90;;;;;;6219989;23;20511;-91
2021/10/12 07:24:48;;;;;;;12.40;4.10;;;11.90;99.90;;;;;;6219811;23;20103;-91
2021/10/12 07:27:13;;;;;;;10.68;3.10;;;11.90;99.90;;;;;;6219920;23;20008;-89
2021/10/12 07:29:39;;;;;;;8.85;3.20;;;12.00;99.90;;;;;;6219918;23;20367;-91
2021/10/12 07:32:06;;;;;;;9.15;3.40;;;11.90;99.90;;;;;;6219738;23;19996;-90
2021/10/12 07:34:32;;;;;;;13.20;3.45;;;12.00;99.90;;;;;;6219181;23;20297;-90
2021/10/12 07:36:57;;;;;;;6.47;2.85;;;12.00;99.90;;;;;;6220121;23;20102;-90
2021/10/12 07:39:23;;;;;;;7.97;2.58;;;12.00;99.90;;;;;;6219984;23;20000;-90
2021/10/12 07:41:49;;;;;;;9.95;3.20;;;12.00;99.90;;;;;;6219821;23;20443;-90
2021/10/12 07:44:14;;;;;;;15.05;3.90;;;12.00;99.90;;;;;;6220367;23;20009;-90
2021/10/12 07:46:40;;;;;;;10.52;4.05;;;12.00;99.90;;;;;;6220196;23;20054;-89
2021/10/12 07:49:06;;;;;;;7.82;4.95;;;12.00;99.90;;;;;;6220311;23;20438;-90
2021/10/12 07:51:31;;;;;;;11.20;4.93;;;12.00;99.90;;;;;;6221423;23;20032;-88
2021/10/12 07:54:00;;;;;;;13.45;4.80;;;12.00;99.90;;;;;;6248574;23;20038;-90
2021/10/12 07:56:44;;;;;;;13.25;3.90;;;12.10;99.90;;;;;;6223627;23;20034;-91
2021/10/12 07:59:12;;;;;;;8.68;2.92;;;12.00;99.90;;;;;;6233513;23;20000;-87
2021/10/12 08:01:39;;;;;;;9.07;4.30;;;12.10;99.90;;;;;;6222168;23;20644;-89
2021/10/12 08:04:05;;;;;;;11.60;4.15;;;12.00;99.90;;;;;;6233359;23;20005;-90
2021/10/12 08:06:31;;;;;;;11.93;3.17;;;12.00;99.90;;;;;;6241445;23;20004;-90
2021/10/12 08:08:57;;;;;;;13.30;3.60;;;12.00;99.90;;;;;;6245240;23;20016;-89
2021/10/12 08:11:24;;;;;;;8.25;3.90;;;12.00;99.90;;;;;;6245675;23;20155;-89
2021/10/12 08:13:54;;;;;;;13.45;4.00;;;12.00;99.90;;;;;;6245831;23;19992;-90
2021/10/12 08:16:25;;;;;;;9.10;3.63;;;12.00;99.90;;;;;;6247065;22;19992;-90
2021/10/12 08:18:51;;;;;;;8.95;3.90;;;12.00;99.90;;;;;;6234944;23;20015;-90
2021/10/12 08:21:17;;;;;;;13.68;3.92;;;11.90;99.90;;;;;;6231349;23;20424;-89
2021/10/12 08:23:42;;;;;;;12.32;4.40;;;12.00;99.90;;;;;;6231390;23;20091;-88
2021/10/12 08:26:08;;;;;;;15.68;4.00;;;11.90;99.90;;;;;;6229109;23;20008;-88
2021/10/12 08:28:34;;;;;;;5.97;3.33;;;11.90;99.90;;;;;;6226271;23;20071;-89
2021/10/12 08:30:59;;;;;;;8.30;3.30;;;12.00;99.90;;;;;;6225510;23;20443;-90
2021/10/12 08:33:25;;;;;;;8.55;3.03;;;11.90;99.90;;;;;;6225636;23;20032;-90
2021/10/12 08:35:51;;;;;;;7.45;3.03;;;12.00;99.90;;;;;;6225018;23;20016;-90
2021/10/12 08:38:19;;;;;;;9.77;3.63;;;12.00;99.90;;;;;;6223280;23;20363;-89
2021/10/12 08:40:46;;;;;;;10.02;3.40;;;12.00;99.90;;;;;;6224118;23;20340;-91
2021/10/12 08:43:14;;;;;;;5.72;3.15;;;12.00;99.90;;;;;;6223720;23;20062;-90
2021/10/12 08:45:40;;;;;;;6.70;2.75;;;12.00;99.90;;;;;;6223652;23;20008;-90
2021/10/12 08:48:06;;;;;;;10.32;3.15;;;12.00;99.90;;;;;;6223529;23;20008;-90
2021/10/12 08:50:33;;;;;;;6.63;3.15;;;12.00;99.90;;;;;;6223561;23;20011;-90
2021/10/12 08:53:01;;;;;;;9.52;2.95;;;12.00;99.90;;;;;;6223591;23;20008;-89
2021/10/12 08:55:28;;;;;;;9.32;3.72;;;12.00;99.90;;;;;;6223525;23;20041;-89
2021/10/12 08:57:54;;;;;;;8.45;3.08;;;12.00;99.90;;;;;;6223047;23;20068;-89
2021/10/12 09:00:21;;;;;;;5.07;2.90;;;12.00;99.90;;;;;;6222681;23;20138;-90
2021/10/12 09:02:57;;;;;;;6.60;2.67;;;12.00;99.90;;;;;;6222597;23;20004;-89
2021/10/12 09:05:26;;;;;;;6.43;3.38;;;12.10;99.90;;;;;;6223404;23;20000;-90
2021/10/12 09:07:53;;;;;;;7.18;3.00;;;12.10;99.90;;;;;;6222883;23;20039;-89
2021/10/12 09:10:20;;;;;;;5.60;2.42;;;12.10;99.90;;;;;;6224597;23;20458;-90
2021/10/12 09:12:49;;;;;;;7.20;2.70;;;12.10;99.90;;;;;;6225572;23;20004;-88
2021/10/12 09:15:18;;;;;;;5.75;2.90;;;12.20;99.90;;;;;;6226772;23;20022;-88
2021/10/12 09:17:54;;;;;;;7.00;3.15;;;12.20;99.90;;;;;;6224769;23;20505;-89
2021/10/12 09:20:22;;;;;;;5.55;3.05;;;12.20;99.90;;;;;;6223876;23;20011;-90
2021/10/12 09:23:07;;;;;;;5.03;2.65;;;12.30;99.90;;;;;;6223825;23;20000;-91
2021/10/12 09:25:35;;;;;;;6.82;2.67;;;12.30;99.90;;;;;;6223747;23;20066;-89
2021/10/12 09:28:01;;;;;;;5.55;2.42;;;12.40;99.90;;;;;;6222804;23;20007;-89
2021/10/12 09:30:28;;;;;;;4.40;2.63;;;12.40;99.90;;;;;;6222924;23;20008;-90
2021/10/12 09:33:00;;;;;;;7.57;2.30;;;12.50;99.90;;;;;;6222365;23;20007;-89
2021/10/12 09:35:29;;;;;;;3.15;2.38;;;12.50;99.90;;;;;;6222424;23;20027;-90
2021/10/12 09:38:09;;;;;;;3.88;2.15;;;12.50;99.90;;;;;;6222860;23;20004;-89
2021/10/12 09:40:40;;;;;;;7.17;2.00;;;12.60;99.90;;;;;;6222909;23;20038;-89
2021/10/12 09:43:06;;;;;;;4.28;1.90;;;12.60;99.90;;;;;;6224858;23;20250;-90
2021/10/12 09:45:38;;;;;;;5.03;1.80;;;12.60;99.90;;;;;;6227023;23;20073;-89
2021/10/12 09:48:30;;;;;;;3.95;1.90;;;12.60;99.90;;;;;;6222167;23;20496;-89
2021/10/12 09:51:08;;;;;;;5.13;2.10;;;12.70;99.90;;;;;;6221801;23;20058;-89
2021/10/12 09:53:34;;;;;;;4.28;1.60;;;12.70;99.90;;;;;;6221940;23;20004;-90
2021/10/12 09:56:00;;;;;;;5.82;2.33;;;12.80;99.90;;;;;;6223956;23;20036;-89
2021/10/12 09:58:31;;;;;;;4.28;2.40;;;12.80;99.90;;;;;;6223029;23;19996;-90
2021/10/12 10:00:59;;;;;;;7.32;1.67;;;12.90;99.90;;;;;;6222974;23;20004;-89
2021/10/12 10:03:27;;;;;;;3.30;1.60;;;13.00;99.90;;;;;;6222648;23;20000;-89
2021/10/12 10:05:54;;;;;;;6.18;1.58;;;13.20;99.90;;;;;;6222290;23;20004;-90
2021/10/12 10:08:21;;;;;;;5.18;1.70;;;13.20;99.90;;;;;;6221785;23;20105;-90
2021/10/12 10:10:47;;;;;;;3.90;1.60;;;13.30;99.90;;;;;;6222009;23;20069;-90
2021/10/12 10:13:18;;;;;;;2.95;1.45;;;13.30;99.90;;;;;;6222098;23;20008;-88
2021/10/12 10:15:45;;;;;;;7.57;1.60;;;13.30;99.90;;;;;;6222508;23;20018;-88
2021/10/12 10:18:12;;;;;;;7.43;1.52;;;13.30;99.90;;;;;;6221667;23;20023;-89
2021/10/12 10:20:39;;;;;;;3.47;1.38;;;13.30;99.90;;;;;;6221328;23;20008;-89
2021/10/12 10:23:05;;;;;;;8.00;1.80;;;13.30;99.90;;;;;;6220993;23;20008;-89
2021/10/12 10:25:40;;;;;;;4.22;1.90;;;13.30;99.90;;;;;;6221088;23;20340;-89
2021/10/12 10:28:22;;;;;;;4.10;1.60;;;13.30;99.90;;;;;;6221009;23;20011;-88
2021/10/12 10:30:57;;;;;;;3.35;1.38;;;13.30;99.90;;;;;;6220991;23;20091;-89
2021/10/12 10:33:32;;;;;;;3.13;1.70;;;13.40;99.90;;;;;;6222313;22;20004;-89
2021/10/12 10:36:11;;;;;;;4.03;1.45;;;13.40;99.90;;;;;;6249269;23;20419;-88
2021/10/12 10:38:45;;;;;;;3.75;1.55;;;13.40;99.90;;;;;;6221454;23;20027;-90
2021/10/12 10:41:11;;;;;;;3.42;1.73;;;13.40;99.90;;;;;;6221314;23;20099;-89
2021/10/12 10:43:49;;;;;;;6.63;1.92;;;13.50;99.90;;;;;;6220865;23;20027;-89
2021/10/12 10:46:30;;;;;;;4.10;1.50;;;13.50;99.90;;;;;;6221584;23;20010;-89
2021/10/12 10:49:04;;;;;;;5.88;1.50;;;13.60;99.90;;;;;;6220642;23;20059;-90
2021/10/12 10:51:49;;;;;;;7.55;1.63;;;13.70;99.90;;;;;;6221033;23;20008;-89
2021/10/12 10:54:36;;;;;;;2.40;1.50;;;13.80;99.90;;;;;;6221512;23;20042;-89
2021/10/12 10:57:09;;;;;;;5.25;1.50;;;13.90;99.90;;;;;;6220256;23;20008;-90
2021/10/12 10:59:34;;;;;;;4.72;1.40;;;13.90;99.90;;;;;;6220373;23;20004;-89
2021/10/12 11:02:00;;;;;;;2.25;1.20;;;14.00;99.90;;;;;;6220488;23;20091;-89
2021/10/12 11:04:46;;;;;;;4.00;1.80;;;14.10;99.90;;;;;;6220601;23;20004;-90
2021/10/12 11:07:19;;;;;;;5.10;1.17;;;14.10;99.90;;;;;;6220449;23;20012;-88
2021/10/12 11:09:45;;;;;;;2.08;1.33;;;14.10;99.90;;;;;;6220347;23;20019;-88
2021/10/12 11:12:18;;;;;;;5.55;1.38;;;14.20;99.90;;;;;;6221202;23;20275;-89
2021/10/12 11:14:45;;;;;;;3.88;1.52;;;14.20;99.90;;;;;;6220782;23;20019;-89
2021/10/12 11:17:11;;;;;;;8.15;1.45;;;14.20;99.90;;;;;;6220271;23;20004;-88
2021/10/12 11:19:56;;;;;;;6.22;1.55;;;14.10;99.90;;;;;;6222278;23;20004;-88
2021/10/12 11:22:24;;;;;;;4.15;1.33;;;14.20;99.90;;;;;;6221846;23;20004;-90
2021/10/12 11:24:50;;;;;;;3.30;1.55;;;14.10;99.90;;;;;;6220303;23;20000;-89
2021/10/12 11:27:16;;;;;;;3.85;1.42;;;14.10;99.90;;;;;;6224167;23;20004;-89
2021/10/12 11:29:42;;;;;;;4.50;1.67;;;14.10;99.90;;;;;;6226826;23;20126;-89
2021/10/12 11:32:08;;;;;;;4.15;1.42;;;14.10;99.90;;;;;;6223568;23;20016;-88
2021/10/12 11:34:34;;;;;;;2.28;1.33;;;14.10;99.90;;;;;;6220118;23;20435;-90
2021/10/12 11:37:26;;;;;;;3.58;1.42;;;14.10;99.90;;;;;;6221425;23;20000;-90
2021/10/12 11:39:51;;;;;;;8.23;1.90;;;14.10;99.90;;;;;;6214399;23;20008;-89
2021/10/12 11:42:17;;;;;;;3.88;1.80;;;14.20;99.90;;;;;;6220867;23;20436;-90
2021/10/12 11:44:43;;;;;;;6.05;1.55;;;14.20;99.90;;;;;;6219975;23;20004;-90
2021/10/12 11:47:08;;;;;;;5.85;2.03;;;14.30;99.90;;;;;;6219635;23;20027;-89
2021/10/12 11:49:36;;;;;;;5.35;1.27;;;14.30;99.90;;;;;;6220354;23;20011;-90
2021/10/12 11:52:11;;;;;;;6.93;1.40;;;14.40;99.90;;;;;;6219669;23;20027;-90
2021/10/12 11:54:37;;;;;;;5.80;1.40;;;14.40;99.90;;;;;;6219598;23;20015;-91
2021/10/12 11:57:03;;;;;;;2.78;1.23;;;14.40;99.90;;;;;;6219716;23;20043;-90
2021/10/12 11:59:38;;;;;;;6.72;1.92;;;14.40;99.90;;;;;;6219958;23;20327;-91
2021/10/12 12:02:07;;;;;;;4.28;1.25;;;14.40;99.90;;;;;;6219531;23;20007;-90
2021/10/12 12:04:35;;;;;;;2.78;1.40;;;14.40;99.90;;;;;;6219691;23;20000;-90
2021/10/12 12:07:06;;;;;;;6.88;1.50;;;14.40;99.90;;;;;;6220189;23;20000;-90
2021/10/12 12:09:33;;;;;;;2.17;1.13;;;14.30;99.90;;;;;;6219528;23;20013;-90
2021/10/12 12:12:05;;;;;;;6.50;1.48;;;14.30;99.90;;;;;;6219677;23;20015;-90
2021/10/12 12:14:31;;;;;;;7.40;2.10;;;14.30;99.90;;;;;;6219403;23;20016;-90
2021/10/12 12:17:06;;;;;;;4.35;1.70;;;14.20;99.90;;;;;;6219537;23;20008;-90
2021/10/12 12:19:50;;;;;;;6.13;1.33;;;14.20;99.90;;;;;;6219416;23;20378;-91
2021/10/12 12:22:17;;;;;;;4.20;1.67;;;14.20;99.90;;;;;;6219449;23;20111;-89
2021/10/12 12:25:02;;;;;;;6.13;1.80;;;14.20;99.90;;;;;;6219378;23;20004;-89
2021/10/12 12:27:34;;;;;;;4.18;1.58;;;14.10;99.90;;;;;;6219902;23;20004;-90
2021/10/12 12:30:18;;;;;;;3.88;1.70;;;14.20;99.90;;;;;;6223350;23;20008;-90
2021/10/12 12:32:56;;;;;;;4.50;1.80;;;14.20;99.90;;;;;;6221583;23;20008;-89
2021/10/12 12:35:25;;;;;;;6.72;1.50;;;14.20;99.90;;;;;;6219716;23;20023;-90
2021/10/12 12:38:01;;;;;;;5.95;1.40;;;14.20;99.90;;;;;;6220940;23;20423;-91
2021/10/12 12:40:33;;;;;;;6.38;1.48;;;14.20;99.90;;;;;;6220125;23;20020;-91
2021/10/12 12:43:15;;;;;;;5.35;1.70;;;14.20;99.90;;;;;;6219676;23;20000;-91
2021/10/12 12:45:41;;;;;;;3.55;1.45;;;14.30;99.90;;;;;;6219817;23;20432;-91
2021/10/12 12:48:06;;;;;;;3.67;1.27;;;14.30;99.90;;;;;;6219645;23;20047;-90